createdAt,value
2023-06-11T04:15:24.299Z,576.00
2023-06-11T04:16:24.392Z,580.00
2023-06-11T04:17:24.294Z,592.00
2023-06-11T04:18:24.243Z,596.00
2023-06-11T04:19:24.235Z,604.00
2023-06-11T04:20:24.304Z,612.00
2023-06-11T04:21:24.238Z,624.00
2023-06-11T04:22:24.248Z,628.00
2023-06-11T04:23:24.217Z,640.00
2023-06-11T04:24:24.288Z,648.00
2023-06-11T04:25:24.225Z,652.00
2023-06-11T04:26:24.195Z,660.00
2023-06-11T04:27:24.235Z,672.00
2023-06-11T04:28:24.198Z,680.00
2023-06-11T04:29:24.213Z,688.00
2023-06-11T04:30:24.227Z,696.00
2023-06-11T04:31:24.214Z,704.00
2023-06-11T04:32:24.244Z,712.00
2023-06-11T04:33:24.171Z,720.00
2023-06-11T04:34:24.225Z,724.00
2023-06-11T04:35:24.213Z,736.00
2023-06-11T04:36:24.172Z,744.00
2023-06-11T04:37:24.169Z,752.00
2023-06-11T04:38:24.168Z,760.00
2023-06-11T04:39:24.171Z,768.00
2023-06-11T04:40:24.185Z,776.00
2023-06-11T04:41:24.192Z,780.00
2023-06-11T04:42:24.171Z,792.00
2023-06-11T04:43:24.156Z,800.00
2023-06-11T04:44:24.162Z,804.00
2023-06-11T04:45:24.170Z,816.00
2023-06-11T04:46:24.222Z,824.00
2023-06-11T04:47:24.224Z,832.00
2023-06-11T04:48:24.182Z,840.00
2023-06-11T04:49:24.143Z,848.00
2023-06-11T04:50:24.146Z,856.00
2023-06-11T04:51:24.173Z,864.00
2023-06-11T04:52:24.139Z,872.00
2023-06-11T04:53:24.211Z,880.00
2023-06-11T04:54:24.163Z,888.00
2023-06-11T04:55:24.144Z,900.00
2023-06-11T04:56:24.158Z,928.00
2023-06-11T04:57:24.137Z,928.00
2023-06-11T04:58:24.234Z,944.00
2023-06-11T04:59:24.158Z,964.00
2023-06-11T05:00:24.126Z,988.00
2023-06-11T05:01:24.184Z,1028.00
2023-06-11T05:02:24.287Z,1088.00
2023-06-11T05:03:24.141Z,1152.00
2023-06-11T05:04:24.177Z,1248.00
2023-06-11T05:05:24.259Z,1372.00
2023-06-11T05:06:24.167Z,1708.00
2023-06-11T05:07:24.152Z,1652.00
2023-06-11T05:08:24.141Z,1756.00
2023-06-11T05:09:24.152Z,1820.00
2023-06-11T05:10:24.124Z,1880.00
2023-06-11T05:11:24.132Z,1976.00
2023-06-11T05:12:24.130Z,1992.00
2023-06-11T05:13:24.162Z,2036.00
2023-06-11T05:14:24.137Z,2068.00
2023-06-11T05:15:24.124Z,2096.00
2023-06-11T05:16:24.200Z,2132.00
2023-06-11T05:17:24.146Z,2156.00
2023-06-11T05:18:24.135Z,2180.00
2023-06-11T05:19:24.148Z,2208.00
2023-06-11T05:20:24.126Z,2220.00
2023-06-11T05:21:24.145Z,2248.00
2023-06-11T05:22:24.119Z,2272.00
2023-06-11T05:23:24.110Z,2292.00
2023-06-11T05:24:24.164Z,2316.00
2023-06-11T05:25:24.117Z,2332.00
2023-06-11T05:26:24.097Z,2352.00
2023-06-11T05:27:24.104Z,2372.00
2023-06-11T05:28:24.131Z,2396.00
2023-06-11T05:29:24.126Z,2416.00
2023-06-11T05:30:24.096Z,2444.00
2023-06-11T05:31:24.127Z,2464.00
2023-06-11T05:32:24.213Z,2480.00
2023-06-11T05:33:24.112Z,2492.00
2023-06-11T05:34:24.130Z,2496.00
2023-06-11T05:35:24.135Z,2520.00
2023-06-11T05:36:24.098Z,2540.00
2023-06-11T05:37:24.087Z,2564.00
2023-06-11T05:38:24.120Z,2600.00
2023-06-11T05:39:24.091Z,2628.00
2023-06-11T05:40:24.093Z,2640.00
2023-06-11T05:41:24.091Z,2660.00
2023-06-11T05:42:24.184Z,2688.00
2023-06-11T05:43:24.110Z,2700.00
2023-06-11T05:44:24.086Z,2720.00
2023-06-11T05:45:24.099Z,2740.00
2023-06-11T05:46:24.158Z,2752.00
2023-06-11T05:47:24.293Z,2780.00
2023-06-11T05:48:24.199Z,2800.00
2023-06-11T05:49:24.091Z,2812.00
2023-06-11T05:50:24.086Z,2844.00
2023-06-11T05:51:24.198Z,2868.00
2023-06-11T05:52:24.084Z,2888.00
2023-06-11T05:53:24.108Z,2916.00
2023-06-11T05:54:24.096Z,2948.00
2023-06-11T05:55:24.076Z,2972.00
2023-06-11T05:56:24.104Z,2996.00
2023-06-11T05:57:24.080Z,3016.00
2023-06-11T05:58:24.082Z,3032.00
2023-06-11T05:59:24.080Z,3052.00
2023-06-11T06:00:24.080Z,3076.00
2023-06-11T06:01:24.094Z,3108.00
2023-06-11T06:02:24.225Z,3132.00
2023-06-11T06:03:24.328Z,3160.00
2023-06-11T06:04:24.151Z,3188.00
2023-06-11T06:05:24.108Z,3208.00
2023-06-11T06:06:24.100Z,3232.00
2023-06-11T06:07:24.094Z,3252.00
2023-06-11T06:08:24.090Z,3284.00
2023-06-11T06:09:24.069Z,3308.00
2023-06-11T06:10:24.106Z,3332.00
2023-06-11T06:11:24.097Z,3360.00
2023-06-11T06:12:24.070Z,3396.00
2023-06-11T06:13:24.155Z,3420.00
2023-06-11T06:14:24.085Z,3444.00
2023-06-11T06:15:24.097Z,3476.00
2023-06-11T06:16:26.717Z,3500.00
2023-06-11T06:17:24.331Z,3524.00
2023-06-11T06:18:24.113Z,3544.00
2023-06-11T06:19:24.088Z,3580.00
2023-06-11T06:20:24.101Z,3612.00
2023-06-11T06:21:24.075Z,3640.00
2023-06-11T06:22:24.113Z,3660.00
2023-06-11T06:23:24.091Z,3684.00
2023-06-11T06:24:24.222Z,3716.00
2023-06-11T06:25:24.066Z,3736.00
2023-06-11T06:26:24.112Z,3764.00
2023-06-11T06:27:24.104Z,3788.00
2023-06-11T06:28:24.089Z,3816.00
2023-06-11T06:29:24.121Z,3840.00
2023-06-11T06:30:24.105Z,3864.00
2023-06-11T06:31:24.465Z,3892.00
2023-06-11T06:32:24.129Z,3912.00
2023-06-11T06:33:24.127Z,3936.00
2023-06-11T06:34:24.128Z,3960.00
2023-06-11T06:35:24.139Z,3984.00
2023-06-11T06:36:24.108Z,4004.00
2023-06-11T06:37:24.116Z,4020.00
2023-06-11T06:38:24.100Z,4036.00
2023-06-11T06:39:24.186Z,4056.00
2023-06-11T06:40:24.272Z,4068.00
2023-06-11T06:41:24.118Z,4084.00
2023-06-11T06:42:24.111Z,4100.00
2023-06-11T06:43:24.077Z,4124.00
2023-06-11T06:44:24.079Z,4140.00
2023-06-11T06:45:24.086Z,4156.00
2023-06-11T06:46:24.131Z,4164.00
2023-06-11T06:47:24.221Z,4180.00
2023-06-11T06:48:24.200Z,4184.00
2023-06-11T06:49:24.102Z,4200.00
2023-06-11T06:50:24.085Z,4200.00
2023-06-11T06:51:24.142Z,4220.00
2023-06-11T06:52:24.086Z,4228.00
2023-06-11T06:53:24.086Z,4240.00
2023-06-11T06:54:24.087Z,4256.00
2023-06-11T06:55:24.104Z,4260.00
2023-06-11T06:56:24.107Z,4284.00
2023-06-11T06:57:24.123Z,4296.00
2023-06-11T06:58:24.088Z,4300.00
2023-06-11T06:59:24.096Z,4308.00
2023-06-11T07:00:24.096Z,4308.00
2023-06-11T07:01:24.223Z,4312.00
2023-06-11T07:02:24.163Z,4316.00
2023-06-11T07:03:24.123Z,4320.00
2023-06-11T07:04:24.121Z,4328.00
2023-06-11T07:05:24.160Z,4328.00
2023-06-11T07:06:24.139Z,4336.00
2023-06-11T07:07:24.111Z,4340.00
2023-06-11T07:08:24.151Z,4352.00
2023-06-11T07:09:24.121Z,4356.00
2023-06-11T07:10:24.103Z,4368.00
2023-06-11T07:11:24.156Z,4372.00
2023-06-11T07:12:24.140Z,4388.00
2023-06-11T07:13:24.122Z,4396.00
2023-06-11T07:14:24.177Z,4392.00
2023-06-11T07:15:24.142Z,4400.00
2023-06-11T07:16:24.161Z,4408.00
2023-06-11T07:17:24.137Z,4412.00
2023-06-11T07:18:24.114Z,4420.00
2023-06-11T07:19:24.200Z,4428.00
2023-06-11T07:20:24.210Z,4436.00
2023-06-11T07:21:24.138Z,4440.00
2023-06-11T07:22:24.123Z,4436.00
2023-06-11T07:23:24.119Z,4448.00
2023-06-11T07:24:24.288Z,4448.00
2023-06-11T07:25:24.182Z,4456.00
2023-06-11T07:27:31.027Z,4476.00
2023-06-11T10:29:59.306Z,3836.00
2023-06-11T10:30:59.273Z,3820.00
2023-06-11T10:31:59.277Z,3832.00
2023-06-11T10:32:59.543Z,3864.00
2023-06-11T10:33:59.466Z,3896.00
2023-06-11T10:34:59.387Z,3932.00
2023-06-11T10:35:59.297Z,3968.00
2023-06-11T10:36:59.289Z,4024.00
2023-06-11T10:37:59.346Z,4076.00
2023-06-11T10:38:59.320Z,4120.00
2023-06-11T10:39:59.305Z,4152.00
2023-06-11T10:40:59.313Z,4192.00
2023-06-11T10:41:59.328Z,4252.00
2023-06-11T10:42:59.344Z,4316.00
2023-06-11T10:43:59.346Z,4344.00
2023-06-11T10:44:59.351Z,4344.00
2023-06-11T10:45:59.358Z,4332.00
2023-06-11T10:46:59.362Z,4348.00
2023-06-11T10:47:59.453Z,4360.00
2023-06-11T10:48:59.378Z,4388.00
2023-06-11T10:49:59.388Z,4432.00
2023-06-11T10:50:59.380Z,4472.00
2023-06-11T10:51:59.393Z,4504.00
2023-06-11T10:52:59.426Z,4556.00
2023-06-11T10:53:59.431Z,4592.00
2023-06-11T10:54:59.392Z,4628.00
2023-06-11T10:55:59.403Z,4636.00
2023-06-11T10:56:59.408Z,4640.00
2023-06-11T10:57:59.437Z,4628.00
2023-06-11T10:58:59.449Z,4648.00
2023-06-11T10:59:59.441Z,4684.00
2023-06-11T11:00:59.412Z,4728.00
2023-06-11T11:01:59.528Z,4732.00
2023-06-11T11:03:00.737Z,4708.00
2023-06-11T11:03:59.506Z,4712.00
2023-06-11T11:04:59.457Z,4756.00
2023-06-11T11:05:59.459Z,4780.00
2023-06-11T11:06:59.492Z,4808.00
2023-06-11T11:07:59.452Z,4840.00
2023-06-11T11:08:59.469Z,4848.00
2023-06-11T11:09:59.496Z,4900.00
2023-06-11T11:10:59.467Z,4932.00
2023-06-11T11:11:59.490Z,4972.00
2023-06-11T11:12:59.478Z,4988.00
2023-06-11T11:14:01.340Z,4976.00
2023-06-11T11:14:59.497Z,5008.00
2023-06-11T11:15:59.515Z,5020.00
2023-06-11T11:16:59.734Z,5084.00
2023-06-11T11:17:59.669Z,5148.00
2023-06-11T11:18:59.525Z,5236.00
2023-06-11T11:19:59.530Z,5332.00
2023-06-11T11:20:59.554Z,5400.00
2023-06-11T11:21:59.536Z,5444.00
2023-06-11T11:22:59.597Z,5540.00
2023-06-11T11:23:59.590Z,5584.00
2023-06-11T11:24:59.551Z,5680.00
2023-06-11T11:25:59.566Z,5784.00
2023-06-11T11:26:59.613Z,5868.00
2023-06-11T11:27:59.590Z,5984.00
2023-06-11T11:28:59.608Z,6112.00
2023-06-11T11:30:03.177Z,6188.00
2023-06-11T11:30:59.678Z,6248.00
2023-06-11T11:31:59.639Z,6300.00
2023-06-11T11:32:59.661Z,6368.00
2023-06-11T11:33:59.654Z,6460.00
2023-06-11T11:34:59.631Z,6580.00
2023-06-11T11:36:02.216Z,6768.00
2023-06-11T11:36:59.649Z,6960.00
2023-06-11T11:37:59.683Z,7100.00
2023-06-11T11:38:59.686Z,7288.00
2023-06-11T11:39:59.674Z,7452.00
2023-06-11T11:40:59.707Z,7532.00
2023-06-11T11:42:02.020Z,5968.00
2023-06-11T11:42:59.726Z,6980.00
2023-06-11T11:43:59.737Z,5716.00
2023-06-11T11:44:59.738Z,7924.00
2023-06-11T11:45:59.775Z,8068.00
2023-06-11T11:46:59.742Z,8092.00
2023-06-11T11:48:03.182Z,8216.00
2023-06-11T11:48:59.753Z,8316.00
2023-06-11T11:49:59.786Z,8296.00
2023-06-11T11:50:59.766Z,8380.00
2023-06-11T11:51:59.774Z,8488.00
2023-06-11T11:52:59.801Z,8508.00
2023-06-11T11:54:03.319Z,7652.00
2023-06-11T11:54:59.804Z,8176.00
2023-06-11T11:56:06.014Z,8764.00
2023-06-11T11:56:59.820Z,8816.00
2023-06-11T11:57:59.817Z,8840.00
2023-06-11T11:58:59.853Z,8824.00
2023-06-11T11:59:59.867Z,8820.00
2023-06-11T12:00:59.847Z,8788.00
2023-06-11T12:01:59.861Z,8092.00
2023-06-11T12:02:59.963Z,7148.00
2023-06-11T12:03:59.999Z,7368.00
2023-06-11T12:04:59.879Z,6672.00
2023-06-11T12:06:00.025Z,6272.00
2023-06-11T12:06:59.910Z,6652.00
2023-06-11T12:07:59.919Z,7840.00
2023-06-11T12:08:59.975Z,7744.00
2023-06-11T12:10:03.435Z,6568.00
2023-06-11T12:10:59.950Z,9320.00
2023-06-11T12:12:05.570Z,7528.00
2023-06-11T12:12:59.981Z,6372.00
2023-06-11T12:14:00.001Z,8376.00
2023-06-11T12:14:59.973Z,8228.00
2023-06-11T12:16:03.881Z,7912.00
2023-06-11T12:17:00.039Z,8960.00
2023-06-11T12:18:00.054Z,8840.00
2023-06-11T12:19:14.454Z,8320.00
2023-06-11T12:20:00.014Z,8608.00
2023-06-11T12:21:00.052Z,8376.00
2023-06-11T12:22:00.101Z,8672.00
2023-06-11T12:23:00.042Z,8820.00
2023-06-11T12:24:00.170Z,8968.00
2023-06-11T12:25:00.102Z,9116.00
2023-06-11T12:26:00.098Z,9216.00
2023-06-11T12:27:00.134Z,9360.00
2023-06-11T12:28:00.142Z,9372.00
2023-06-11T12:29:00.118Z,9428.00
2023-06-11T12:30:00.217Z,8988.00
2023-06-11T12:31:00.167Z,9724.00
2023-06-11T12:32:00.250Z,8588.00
2023-06-11T12:33:00.281Z,10052.00
2023-06-11T12:34:00.154Z,10096.00
2023-06-11T12:35:00.182Z,10080.00
2023-06-11T12:36:00.194Z,10056.00
2023-06-11T12:37:00.172Z,9684.00
2023-06-11T12:38:00.220Z,9804.00
2023-06-11T12:39:00.198Z,10792.00
2023-06-11T12:40:00.245Z,10040.00
2023-06-11T12:41:00.234Z,6796.00
2023-06-11T12:42:00.247Z,7920.00
2023-06-11T12:43:00.689Z,8428.00
2023-06-11T12:44:00.287Z,7576.00
2023-06-11T12:45:00.421Z,8460.00
2023-06-11T12:46:00.335Z,11328.00
2023-06-11T12:47:00.278Z,11836.00
2023-06-11T12:48:00.372Z,10976.00
2023-06-11T12:49:00.291Z,12340.00
2023-06-11T12:50:00.320Z,11368.00
2023-06-11T12:51:00.330Z,12564.00
2023-06-11T12:52:00.381Z,12148.00
2023-06-11T12:53:00.336Z,12520.00
2023-06-11T12:54:00.390Z,8188.00
2023-06-11T12:55:00.389Z,10944.00
2023-06-11T12:56:00.473Z,10676.00
2023-06-11T12:57:00.386Z,12676.00
2023-06-11T12:58:00.442Z,13496.00
2023-06-11T12:59:00.427Z,13856.00
2023-06-11T13:00:00.414Z,14100.00
2023-06-11T13:01:00.481Z,14328.00
2023-06-11T13:02:00.466Z,14608.00
2023-06-11T13:03:00.481Z,14924.00
2023-06-11T13:04:00.485Z,15352.00
2023-06-11T13:05:00.667Z,15740.00
2023-06-11T13:06:00.511Z,15828.00
2023-06-11T13:07:00.517Z,14904.00
2023-06-11T13:08:00.524Z,11232.00
2023-06-11T13:09:00.516Z,13216.00
2023-06-11T13:10:00.560Z,16040.00
2023-06-11T13:11:00.547Z,17672.00
2023-06-11T13:12:00.612Z,18136.00
2023-06-11T13:13:00.552Z,18496.00
2023-06-11T13:14:00.561Z,18752.00
2023-06-11T13:15:00.660Z,19200.00
2023-06-11T13:16:00.661Z,19584.00
2023-06-11T13:17:00.653Z,19936.00
2023-06-11T13:18:00.738Z,20224.00
2023-06-11T13:19:00.649Z,20480.00
2023-06-11T13:20:00.641Z,20800.00
2023-06-11T13:21:00.692Z,21248.00
2023-06-11T13:22:00.718Z,21184.00
2023-06-11T13:23:00.663Z,20864.00
2023-06-11T13:24:00.737Z,21472.00
2023-06-11T13:25:00.716Z,22400.00
2023-06-11T13:26:00.713Z,22816.00
2023-06-11T13:27:00.706Z,23264.00
2023-06-11T13:28:00.737Z,23456.00
2023-06-11T13:29:00.756Z,23584.00
2023-06-11T13:30:00.763Z,23776.00
2023-06-11T13:31:00.789Z,24128.00
2023-06-11T13:32:00.776Z,24608.00
2023-06-11T13:33:00.877Z,24896.00
2023-06-11T13:34:00.789Z,25120.00
2023-06-11T13:35:00.855Z,25312.00
2023-06-11T13:36:00.923Z,25472.00
2023-06-11T13:38:33.385Z,25344.00
2023-06-11T13:39:33.456Z,25504.00
2023-06-11T13:40:33.405Z,25632.00
2023-06-11T13:41:33.437Z,25792.00
2023-06-11T13:42:33.448Z,26016.00
2023-06-11T13:43:33.440Z,26112.00
2023-06-11T13:44:33.496Z,26176.00
2023-06-11T13:45:33.489Z,26400.00
2023-06-11T13:46:33.517Z,26368.00
2023-06-11T13:47:33.560Z,26496.00
2023-06-11T13:48:33.517Z,26496.00
2023-06-11T13:49:33.527Z,26592.00
2023-06-11T13:50:33.563Z,26624.00
2023-06-11T13:51:33.545Z,26624.00
2023-06-11T13:52:33.596Z,26624.00
2023-06-11T13:53:33.594Z,26400.00
2023-06-11T13:54:33.578Z,26144.00
2023-06-11T13:55:33.587Z,25888.00
2023-06-11T13:56:33.657Z,25728.00
2023-06-11T13:57:33.653Z,25440.00
2023-06-11T13:58:33.634Z,25824.00
2023-06-11T13:59:33.643Z,25632.00
2023-06-11T14:00:33.708Z,25952.00
2023-06-11T14:01:33.951Z,26016.00
2023-06-11T14:02:33.762Z,25760.00
2023-06-11T14:03:33.809Z,25280.00
2023-06-11T14:04:33.727Z,24832.00
2023-06-11T14:05:33.764Z,24448.00
2023-06-11T14:06:33.787Z,23840.00
2023-06-11T14:07:33.803Z,15072.00
2023-06-11T14:08:33.760Z,10248.00
2023-06-11T14:09:33.814Z,18016.00
2023-06-11T14:10:33.825Z,23552.00
2023-06-11T14:11:33.817Z,23776.00
2023-06-11T14:12:33.817Z,23648.00
2023-06-11T14:13:33.872Z,23584.00
2023-06-11T14:14:33.875Z,23328.00
2023-06-11T14:15:33.878Z,22848.00
2023-06-11T14:16:33.938Z,22624.00
2023-06-11T14:17:33.921Z,22784.00
2023-06-11T14:18:33.919Z,22464.00
2023-06-11T14:19:33.902Z,21504.00
2023-06-11T14:20:33.929Z,20928.00
2023-06-11T14:21:33.945Z,21600.00
2023-06-11T14:22:33.945Z,21760.00
2023-06-11T14:23:34.046Z,21824.00
2023-06-11T14:24:34.035Z,21856.00
2023-06-11T14:25:33.992Z,21728.00
2023-06-11T14:26:33.997Z,21312.00
2023-06-11T14:27:34.041Z,11224.00
2023-06-11T14:28:34.026Z,8200.00
2023-06-11T14:29:34.061Z,7612.00
2023-06-11T14:30:34.053Z,8420.00
2023-06-11T14:31:34.138Z,12500.00
2023-06-11T14:32:34.364Z,18816.00
2023-06-11T14:33:34.081Z,18432.00
2023-06-11T14:34:34.129Z,17904.00
2023-06-11T14:35:34.093Z,17584.00
2023-06-11T14:36:34.101Z,17196.00
2023-06-11T14:37:34.119Z,16908.00
2023-06-11T14:38:34.169Z,16736.00
2023-06-11T14:39:34.195Z,16652.00
2023-06-11T14:40:34.157Z,16620.00
2023-06-11T14:41:34.158Z,16412.00
2023-06-11T14:42:34.202Z,16224.00
2023-06-11T14:43:34.205Z,16052.00
2023-06-11T14:44:34.258Z,15808.00
2023-06-11T14:45:34.246Z,15600.00
2023-06-11T14:46:34.262Z,15196.00
2023-06-11T14:47:34.414Z,15176.00
2023-06-11T14:48:34.236Z,15116.00
2023-06-11T14:49:34.281Z,15152.00
2023-06-11T14:50:34.265Z,15080.00
2023-06-11T14:51:34.284Z,14876.00
2023-06-11T14:52:34.308Z,14728.00
2023-06-11T14:53:34.352Z,14236.00
2023-06-11T14:54:34.315Z,13932.00
2023-06-11T14:55:34.333Z,13780.00
2023-06-11T14:56:34.363Z,13924.00
2023-06-11T14:57:34.340Z,13888.00
2023-06-11T14:59:34.375Z,13764.00
2023-06-11T15:00:34.433Z,13752.00
2023-06-11T15:01:34.548Z,13776.00
2023-06-11T15:02:34.509Z,13772.00
2023-06-11T15:03:34.474Z,13588.00
2023-06-11T15:04:34.459Z,13244.00
2023-06-11T15:05:34.482Z,13040.00
2023-06-11T15:06:34.488Z,12884.00
2023-06-11T15:07:35.988Z,12664.00
2023-06-11T15:08:34.472Z,12404.00
2023-06-11T15:09:34.497Z,12180.00
2023-06-11T15:10:34.520Z,12112.00
2023-06-11T15:11:34.511Z,11940.00
2023-06-11T15:12:34.526Z,11788.00
2023-06-11T15:13:34.541Z,11680.00
2023-06-11T15:14:34.554Z,11640.00
2023-06-11T15:15:34.570Z,11512.00
2023-06-11T15:16:34.629Z,11412.00
2023-06-11T15:17:34.622Z,11248.00
2023-06-11T15:18:34.595Z,11136.00
2023-06-11T15:19:34.664Z,10992.00
2023-06-11T15:20:34.632Z,10880.00
2023-06-11T15:21:34.684Z,10780.00
2023-06-11T15:22:34.661Z,10656.00
2023-06-11T15:23:34.739Z,10508.00
2023-06-11T15:24:34.680Z,10168.00
2023-06-11T15:25:34.699Z,9856.00
2023-06-11T15:26:34.711Z,9680.00
2023-06-11T15:27:34.705Z,9492.00
2023-06-11T15:28:34.895Z,9324.00
2023-06-11T15:29:34.738Z,9292.00
2023-06-11T15:30:34.722Z,9620.00
2023-06-11T15:31:34.781Z,10924.00
2023-06-11T15:32:34.936Z,12612.00
2023-06-11T15:33:34.830Z,9640.00
2023-06-11T15:34:34.767Z,6084.00
2023-06-11T15:35:34.797Z,5632.00
2023-06-11T15:36:34.804Z,5268.00
2023-06-11T15:37:34.805Z,4984.00
2023-06-11T15:38:34.830Z,4760.00
2023-06-11T15:39:34.823Z,4576.00
2023-06-11T15:40:34.832Z,4432.00
2023-06-11T15:41:34.904Z,4320.00
2023-06-11T15:42:34.893Z,4224.00
2023-06-11T15:43:34.842Z,4152.00
2023-06-11T15:44:34.880Z,4088.00
2023-06-11T15:45:34.888Z,4012.00
2023-06-11T15:46:34.936Z,3944.00
2023-06-11T15:47:35.126Z,3876.00
2023-06-11T15:48:34.970Z,3816.00
2023-06-11T15:49:34.912Z,3760.00
2023-06-11T15:50:34.931Z,3708.00
2023-06-11T15:51:34.962Z,3656.00
2023-06-11T15:52:34.915Z,3608.00
2023-06-11T15:53:34.924Z,3564.00
2023-06-11T15:54:34.992Z,3528.00
2023-06-11T15:55:34.993Z,3484.00
2023-06-11T15:56:34.954Z,3440.00
2023-06-11T15:57:34.974Z,3404.00
2023-06-11T15:58:34.972Z,3368.00
2023-06-11T15:59:35.032Z,3328.00
2023-06-11T16:00:35.022Z,3292.00
2023-06-11T16:01:35.064Z,3264.00
2023-06-11T16:02:34.999Z,3236.00
2023-06-11T16:03:35.123Z,3208.00
2023-06-11T16:04:35.089Z,3176.00
2023-06-11T16:05:35.072Z,3148.00
2023-06-11T16:06:35.018Z,3120.00
2023-06-11T16:07:35.099Z,3084.00
2023-06-11T16:08:35.028Z,3064.00
2023-06-11T16:09:35.101Z,3028.00
2023-06-11T16:10:35.078Z,3000.00
2023-06-11T16:11:35.069Z,2968.00
2023-06-11T16:12:35.093Z,2936.00
2023-06-11T16:13:35.096Z,2916.00
2023-06-11T16:14:35.119Z,2884.00
2023-06-11T16:15:35.260Z,2864.00
2023-06-11T16:16:35.287Z,2836.00
2023-06-11T16:29:14.039Z,2488.00
2023-06-11T16:30:14.343Z,2452.00
2023-06-11T16:31:14.019Z,2428.00
2023-06-11T16:32:13.980Z,2396.00
2023-06-11T16:33:14.058Z,2376.00
2023-06-11T16:34:14.053Z,2348.00
2023-06-11T16:35:14.444Z,2324.00
2023-06-11T16:36:14.015Z,2300.00
2023-06-11T16:37:14.004Z,2276.00
2023-06-11T16:38:14.008Z,2252.00
2023-06-11T16:39:26.729Z,2224.00
2023-06-11T16:40:14.028Z,2204.00
2023-06-11T16:41:14.036Z,2180.00
2023-06-11T16:42:14.070Z,2156.00
2023-06-11T16:43:14.032Z,2140.00
2023-06-11T16:44:14.020Z,2124.00
2023-06-11T16:45:14.318Z,2112.00
2023-06-11T16:46:14.074Z,2092.00
2023-06-11T16:47:14.097Z,2068.00
2023-06-11T16:48:14.110Z,2044.00
2023-06-11T16:49:14.126Z,2024.00
2023-06-11T16:50:14.403Z,2008.00
2023-06-11T16:51:14.096Z,1988.00
2023-06-11T16:52:14.088Z,1968.00
2023-06-11T16:53:14.062Z,1948.00
2023-06-11T16:54:16.540Z,1924.00
2023-06-11T16:55:14.474Z,1900.00
2023-06-11T16:56:14.103Z,1880.00
2023-06-11T16:57:14.090Z,1860.00
2023-06-11T16:58:14.125Z,1844.00
2023-06-11T16:59:14.107Z,1824.00
2023-06-11T17:00:14.353Z,1808.00
2023-06-11T17:01:14.184Z,1792.00
2023-06-11T17:02:14.107Z,1780.00
2023-06-11T17:03:14.163Z,1760.00
2023-06-11T17:04:14.195Z,1748.00
2023-06-11T17:05:14.152Z,1732.00
2023-06-11T17:06:14.113Z,1716.00
2023-06-11T17:07:14.117Z,1696.00
2023-06-11T17:08:14.118Z,1688.00
2023-06-11T17:09:14.242Z,1676.00
2023-06-11T17:10:14.519Z,1664.00
2023-06-11T17:11:14.144Z,1648.00
2023-06-11T17:12:14.131Z,1636.00
2023-06-11T17:13:14.140Z,1624.00
2023-06-11T17:14:14.150Z,1608.00
2023-06-11T17:15:14.264Z,1596.00
2023-06-11T17:16:14.254Z,1580.00
2023-06-11T17:17:14.191Z,1568.00
2023-06-11T17:18:14.191Z,1552.00
2023-06-11T17:19:14.158Z,1540.00
2023-06-11T17:20:14.546Z,1528.00
2023-06-11T17:21:14.196Z,1512.00
2023-06-11T17:22:14.190Z,1500.00
2023-06-11T17:23:14.171Z,1488.00
2023-06-11T17:24:14.229Z,1480.00
2023-06-11T17:25:14.581Z,1464.00
2023-06-11T17:26:16.565Z,1456.00
2023-06-11T17:27:14.171Z,1444.00
2023-06-11T17:28:14.185Z,1436.00
2023-06-11T17:29:14.208Z,1424.00
2023-06-11T17:30:14.441Z,1408.00
2023-06-11T17:31:14.272Z,1396.00
2023-06-11T17:32:14.250Z,1380.00
2023-06-11T17:33:14.317Z,1364.00
2023-06-11T17:34:14.232Z,1356.00
2023-06-11T17:35:14.375Z,1340.00
2023-06-11T17:36:14.211Z,1328.00
2023-06-11T17:37:14.215Z,1320.00
2023-06-11T17:38:14.218Z,1304.00
2023-06-11T17:39:14.264Z,1292.00
2023-06-11T17:40:16.618Z,1280.00
2023-06-11T17:41:14.222Z,1264.00
2023-06-11T17:42:14.247Z,1256.00
2023-06-11T17:43:14.251Z,1244.00
2023-06-11T17:44:14.258Z,1236.00
2023-06-11T17:45:14.226Z,1224.00
2023-06-11T17:46:14.317Z,1216.00
2023-06-11T17:47:14.249Z,1200.00
2023-06-11T17:48:14.281Z,1192.00
2023-06-11T17:49:14.288Z,1180.00
2023-06-11T17:50:14.458Z,1168.00
2023-06-11T17:51:14.837Z,1156.00
2023-06-11T17:52:14.255Z,1148.00
2023-06-11T17:53:14.277Z,1132.00
2023-06-11T17:54:14.252Z,1120.00
2023-06-11T17:55:14.533Z,1112.00
2023-06-11T17:56:14.266Z,1100.00
2023-06-11T17:57:14.291Z,1084.00
2023-06-11T17:58:14.277Z,1076.00
2023-06-11T17:59:14.270Z,1064.00
2023-06-11T18:00:14.563Z,1052.00
2023-06-11T18:01:14.368Z,1036.00
2023-06-11T18:02:14.316Z,1028.00
2023-06-11T18:03:14.322Z,1016.00
2023-06-11T18:04:14.318Z,1000.00
2023-06-11T18:05:14.576Z,992.00
2023-06-11T18:06:16.860Z,976.00
2023-06-11T18:07:14.290Z,968.00
2023-06-11T18:08:14.330Z,956.00
2023-06-11T18:09:14.303Z,944.00
2023-06-11T18:10:14.290Z,932.00
2023-06-11T18:11:14.305Z,920.00
2023-06-11T18:12:14.310Z,908.00
2023-06-11T18:13:14.317Z,900.00
2023-06-11T18:14:14.305Z,888.00
2023-06-11T18:15:31.346Z,876.00
2023-06-11T18:16:14.338Z,868.00
2023-06-11T18:17:14.324Z,856.00
2023-06-11T18:18:14.327Z,844.00
2023-06-11T18:19:14.357Z,832.00
2023-06-11T18:20:14.331Z,824.00
2023-06-11T18:21:14.343Z,812.00
2023-06-11T18:22:14.343Z,804.00
2023-06-11T18:23:14.364Z,792.00
2023-06-11T18:24:14.404Z,780.00
2023-06-11T18:25:14.669Z,772.00
2023-06-11T18:26:14.453Z,760.00
2023-06-11T18:27:14.401Z,752.00
2023-06-11T18:28:14.333Z,740.00
2023-06-11T18:29:14.344Z,728.00
2023-06-11T18:30:14.670Z,720.00
2023-06-11T18:31:14.357Z,708.00
2023-06-11T18:32:14.355Z,700.00
2023-06-11T18:33:14.416Z,692.00
2023-06-11T18:34:14.349Z,680.00
2023-06-11T18:35:14.358Z,672.00
2023-06-11T18:36:14.358Z,660.00
2023-06-11T18:37:14.438Z,648.00
2023-06-11T18:38:14.351Z,640.00
2023-06-11T18:39:14.357Z,628.00
2023-06-11T18:40:14.750Z,620.00
2023-06-11T18:41:14.370Z,608.00
2023-06-11T18:42:14.390Z,596.00
2023-06-11T18:43:14.376Z,588.00
2023-06-11T18:44:14.394Z,576.00
2023-06-11T18:45:14.387Z,564.00
2023-06-11T18:46:14.457Z,552.00
2023-06-11T18:47:14.407Z,544.00
2023-06-11T18:48:14.491Z,536.00
2023-06-11T18:49:14.426Z,524.00
2023-06-11T18:50:14.719Z,512.00
2023-06-11T18:51:14.376Z,504.00
2023-06-11T18:52:14.392Z,492.00
2023-06-11T18:53:14.478Z,484.00
2023-06-11T18:54:14.418Z,472.00
2023-06-11T18:55:14.406Z,460.00
2023-06-11T18:56:14.389Z,448.00
2023-06-11T18:57:14.397Z,440.00
2023-06-11T18:58:17.413Z,428.00
2023-06-11T18:59:14.436Z,420.00
2023-06-11T19:00:14.727Z,412.00
2023-06-11T19:01:14.442Z,400.00
2023-06-11T19:02:14.398Z,388.00
2023-06-11T19:03:14.482Z,380.00
2023-06-11T19:04:14.549Z,368.00
2023-06-11T19:05:14.474Z,360.00
2023-06-11T19:06:14.429Z,352.00
2023-06-11T19:07:14.432Z,340.00
2023-06-11T19:08:14.486Z,328.00
2023-06-11T19:09:14.440Z,324.00
2023-06-11T19:10:14.746Z,312.00
2023-06-11T19:11:14.443Z,304.00
2023-06-11T19:12:14.430Z,292.00
2023-06-11T19:13:14.445Z,284.00
2023-06-11T19:14:14.423Z,276.00
2023-06-11T19:15:14.457Z,264.00
2023-06-11T19:16:14.453Z,256.00
2023-06-11T19:17:14.514Z,248.00
2023-06-11T19:18:14.477Z,240.00
2023-06-11T19:19:14.431Z,232.00
2023-06-11T19:20:14.607Z,224.00
2023-06-11T19:21:14.478Z,216.00
2023-06-11T19:22:14.443Z,208.00
2023-06-11T19:23:14.472Z,200.00
2023-06-11T19:24:14.487Z,192.00
2023-06-11T19:25:14.467Z,184.00
2023-06-11T19:26:14.486Z,176.00
2023-06-11T19:27:14.504Z,168.00
2023-06-11T19:28:14.490Z,160.00
2023-06-11T19:29:14.468Z,156.00
2023-06-11T19:30:14.861Z,144.00
2023-06-11T19:31:14.574Z,140.00
2023-06-11T19:32:14.462Z,132.00
2023-06-11T19:33:14.464Z,124.00
2023-06-11T19:34:17.010Z,124.00
2023-06-11T19:35:14.500Z,116.00
2023-06-11T19:36:14.602Z,108.00
2023-06-11T19:37:14.493Z,104.00